Latest Coastal Weather Observations for Aireys Inlet

IDV60701

Issued at 3:02 am EDT Tuesday 20 February 2018 (issued every 10 minutes, with the page automatically refreshed every 10 minutes)

About coastal observations | Map of coastal stations | Coastal observations for VIC | Marine services | Other Formats
Station Details ID: 090180 Name: AIREYS INLET Lat: -38.46 Lon: 144.09 Height: 105.0 m
Data from the previous 72 hours. | See also: Recent months at Aireys Inlet
Date/Time
EDT
Temp
°C
Wind Pressure Rain since
9am
mm
Weather Cloud Vis
km
Sea
Height
m
Swell
Dir  Spd
kts
Gust
kts
hPa Trend Height
m
Period
s
Dir
20/03:00am 16.4 ESE 13 23 - - 0.0 - - - - - - -
20/02:48am 16.5 E 15 25 - - 0.0 - - - - - - -
20/02:30am 16.7 E 12 20 - - 0.0 - - - - - - -
20/02:00am 16.7 E 12 22 - - 0.0 - - - - - - -
20/01:30am 17.0 E 12 23 - - 0.0 - - - - - - -
20/01:00am 17.1 E 13 21 - - 0.0 - - - - - - -
20/12:30am 17.2 E 13 23 - - 0.0 - - - - - - -
20/12:00am 17.3 E 15 27 - - 0.0 - - - - - - -
 
Date/Time
EDT
Temp
°C
Wind Pressure Rain since
9am
mm
Weather Cloud Vis
km
Sea
Height
m
Swell
Dir  Spd
kts
Gust
kts
hPa Trend Height
m
Period
s
Dir
19/11:35pm 17.3 E 15 27 - - 0.0 - - - - - - -
19/11:30pm 17.4 E 16 25 - - 0.0 - - - - - - -
19/11:02pm 17.4 E 15 26 - - 0.0 - - - - - - -
19/11:00pm 17.4 E 14 22 - - 0.0 - - - - - - -
19/10:30pm 17.6 E 16 27 - - 0.0 - - - - - - -
19/10:00pm 17.8 ESE 15 26 - - 0.0 - - - - - - -
19/09:58pm 17.8 ESE 15 26 - - 0.0 - - - - - - -
19/09:30pm 17.9 E 15 25 - - 0.0 - - - - - - -
19/09:00pm 18.0 ESE 16 27 - - 0.0 - - - - - - -
19/08:53pm 18.1 ESE 15 27 - - 0.0 - - - - - - -
19/08:30pm 18.2 ESE 14 21 - - 0.0 - - - - - - -
19/08:13pm 18.2 ESE 15 25 - - 0.0 - - - - - - -
19/08:00pm 18.2 ESE 13 25 - - 0.0 - - - - - - -
19/07:44pm 18.1 ESE 15 26 - - 0.0 - - - - - - -
19/07:30pm 18.2 ESE 14 25 - - 0.0 - - - - - - -
19/07:00pm 18.5 ESE 15 25 - - 0.0 - - - - - - -
19/06:30pm 18.6 ESE 14 24 - - 0.0 - - - - - - -
19/06:00pm 18.9 ESE 14 22 - - 0.0 - - - - - - -
19/05:30pm 19.2 ESE 14 22 - - 0.0 - - - - - - -
19/05:00pm 19.4 ESE 13 23 - - 0.0 - - - - - - -
19/04:30pm 20.8 ESE 12 20 - - 0.0 - - - - - - -
19/04:00pm 20.5 ESE 14 25 - - 0.0 - - - - - - -
19/03:30pm 19.9 ESE 13 20 - - 0.0 - - - - - - -
19/03:00pm 19.8 ESE 13 23 - - 0.0 - - - - - - -
19/02:30pm 19.7 ESE 13 21 - - 0.0 - - - - - - -
19/02:00pm 19.3 ESE 11 19 - - 0.0 - - - - - - -
19/01:30pm 19.6 ESE 12 18 - - 0.0 - - - - - - -
19/01:00pm 19.9 SE 8 15 - - 0.0 - - - - - - -
19/12:30pm 20.3 SSE 9 16 - - 0.0 - - - - - - -
19/12:00pm 20.3 SSE 9 13 - - 0.0 - - - - - - -
19/11:30am 19.6 S 9 14 - - 0.0 - - - - - - -
19/11:00am 18.9 SSE 8 13 - - 0.0 - - - - - - -
19/10:30am 18.4 SSE 8 12 - - 0.0 - - - - - - -
19/10:00am 18.1 S 7 14 - - 0.0 - - - - - - -
19/09:30am 17.5 SSE 9 15 - - 0.0 - - - - - - -
19/09:00am 17.2 SSE 9 15 - - 0.4 - - - - - - -
19/08:30am 16.1 SSE 10 17 - - 0.4 - - - - - - -
19/08:00am 15.9 SSE 9 14 - - 0.4 - - - - - - -
19/07:30am 15.8 SSE 9 14 - - 0.4 - - - - - - -
19/07:00am 15.7 SSE 9 16 - - 0.4 - - - - - - -
19/06:30am 15.6 SSE 11 19 - - 0.4 - - - - - - -
19/06:00am 15.8 SSE 12 18 - - 0.4 - - - - - - -
19/05:30am 16.1 SSE 12 21 - - 0.4 - - - - - - -
19/05:00am 16.5 SSE 11 18 - - 0.4 - - - - - - -
19/04:30am 16.6 SSE 11 17 - - 0.4 - - - - - - -
19/04:00am 16.7 SSE 11 19 - - 0.4 - - - - - - -
19/03:30am 16.8 SSE 10 16 - - 0.4 - - - - - - -
19/03:00am 16.8 SSE 10 16 - - 0.4 - - - - - - -
19/02:30am 17.1 SSE 9 16 - - 0.4 - - - - - - -
19/02:00am 16.6 SSE 9 14 - - 0.4 - - - - - - -
19/01:30am 16.6 SSE 8 13 - - 0.4 - - - - - - -
19/01:00am 16.5 SSE 8 13 - - 0.4 - - - - - - -
19/12:30am 16.4 SSE 8 11 - - 0.4 - - - - - - -
19/12:00am 16.6 SSE 9 14 - - 0.4 Recent precip. - - - - - -
 
Date/Time
EDT
Temp
°C
Wind Pressure Rain since
9am
mm
Weather Cloud Vis
km
Sea
Height
m
Swell
Dir  Spd
kts
Gust
kts
hPa Trend Height
m
Period
s
Dir
18/11:30pm 17.1 SSE 8 12 - - 0.0 - - - - - - -
18/11:00pm 17.5 SE 8 12 - - 0.0 - - - - - - -
18/10:30pm 17.6 S 6 8 - - 0.0 - - - - - - -
18/10:00pm 17.4 S 6 10 - - 0.0 - - - - - - -
18/09:30pm 17.6 S 6 9 - - 0.0 - - - - - - -
18/09:00pm 17.9 S 7 11 - - 0.0 - - - - - - -
18/08:30pm 17.9 S 6 10 - - 0.0 - - - - - - -
18/08:00pm 18.0 S 7 11 - - 0.0 - - - - - - -
18/07:30pm 18.3 S 7 10 - - 0.0 - - - - - - -
18/07:00pm 18.3 S 8 12 - - 0.0 - - - - - - -
18/06:30pm 18.6 S 8 11 - - 0.0 - - - - - - -
18/06:00pm 19.2 S 6 9 - - 0.0 - - - - - - -
18/05:30pm 19.2 SSW 8 12 - - 0.0 - - - - - - -
18/05:00pm 18.8 S 9 13 - - 0.0 - - - - - - -
18/04:30pm 19.1 S 8 11 - - 0.0 - - - - - - -
18/04:00pm 20.2 S 7 10 - - 0.0 - - - - - - -
18/03:30pm 20.5 SSW 7 11 - - 0.0 - - - - - - -
18/03:00pm 21.8 SSW 7 11 - - 0.0 - - - - - - -
18/02:30pm 22.8 S 6 9 - - 0.0 - - - - - - -
18/02:00pm 22.4 S 6 9 - - 0.0 - - - - - - -
18/01:30pm 22.7 S 5 10 - - 0.0 - - - - - - -
18/01:00pm 20.8 SSE 4 8 - - 0.0 - - - - - - -
18/12:30pm 20.5 S 5 7 - - 0.0 - - - - - - -
18/12:00pm 21.7 S 4 8 - - 0.0 - - - - - - -
18/11:30am 21.6 S 5 8 - - 0.0 - - - - - - -
18/11:00am 21.1 S 5 9 - - 0.0 - - - - - - -
18/10:30am 19.9 SSW 5 7 - - 0.0 - - - - - - -
18/10:00am 19.2 SW 4 7 - - 0.0 - - - - - - -
18/09:30am 18.2 SSE 2 3 - - 0.0 - - - - - - -
18/09:00am 17.4 SSW 2 3 - - 0.0 - - - - - - -
18/08:30am 16.7 WSW 2 2 - - 0.0 - - - - - - -
18/08:00am 15.9 WSW 2 4 - - 0.0 - - - - - - -
18/07:30am 15.4 CALM 0 0 - - 0.0 - - - - - - -
18/07:00am 15.4 CALM 0 1 - - 0.0 - - - - - - -
18/06:30am 14.7 N 3 3 - - 0.0 - - - - - - -
18/06:00am 14.6 NNW 3 5 - - 0.0 - - - - - - -
18/05:30am 14.4 NNW 3 5 - - 0.0 - - - - - - -
18/05:00am 14.6 NNW 3 5 - - 0.0 - - - - - - -
18/04:30am 14.7 NNW 3 4 - - 0.0 - - - - - - -
18/04:00am 14.7 NNW 3 5 - - 0.0 - - - - - - -
18/03:30am 14.6 NNW 3 5 - - 0.0 - - - - - - -
18/03:00am 14.8 NNW 2 4 - - 0.0 - - - - - - -
18/02:30am 14.3 NNW 4 5 - - 0.0 - - - - - - -
18/02:00am 14.8 NNW 2 4 - - 0.0 - - - - - - -
18/01:30am 14.6 N 3 5 - - 0.0 - - - - - - -
18/01:00am 15.1 NNW 2 5 - - 0.0 - - - - - - -
18/12:30am 15.4 NNW 2 3 - - 0.0 - - - - - - -
18/12:00am 15.5 NNW 3 4 - - 0.0 - - - - - - -
 
Date/Time
EDT
Temp
°C
Wind Pressure Rain since
9am
mm
Weather Cloud Vis
km
Sea
Height
m
Swell
Dir  Spd
kts
Gust
kts
hPa Trend Height
m
Period
s
Dir
17/11:30pm 15.7 N 3 3 - - 0.0 - - - - - - -
17/11:00pm 16.0 NNE 3 5 - - 0.0 - - - - - - -
17/10:30pm 16.4 NNE 4 5 - - 0.0 - - - - - - -
17/10:00pm 17.1 SW 3 5 - - 0.0 - - - - - - -
17/09:30pm 17.3 SSW 6 9 - - 0.0 - - - - - - -
17/09:00pm 17.4 SSW 5 8 - - 0.0 - - - - - - -
17/08:30pm 18.0 SSW 8 12 - - 0.0 - - - - - - -
17/08:00pm 19.0 SSW 8 14 - - 0.0 - - - - - - -
17/07:30pm 20.3 SSW 9 14 - - 0.0 - - - - - - -
17/07:00pm 21.1 SSW 9 14 - - 0.0 - - - - - - -
17/06:30pm 22.1 SSW 10 17 - - 0.0 - - - - - - -
17/06:00pm 22.6 SSW 10 17 - - 0.0 - - - - - - -
17/05:30pm 22.3 SSW 10 18 - - 0.0 - - - - - - -
17/05:00pm 23.0 SSW 11 18 - - 0.0 - - - - - - -
17/04:30pm 23.8 SSW 9 14 - - 0.0 - - - - - - -
17/04:00pm 24.0 S 7 10 - - 0.0 - - - - - - -
17/03:30pm 23.0 S 6 10 - - 0.0 - - - - - - -
17/03:00pm 21.4 S 7 10 - - 0.0 - - - - - - -
17/02:30pm 21.7 S 6 10 - - 0.0 - - - - - - -
17/02:00pm 20.2 S 6 9 - - 0.0 - - - - - - -
17/01:30pm 20.9 S 7 11 - - 0.0 - - - - - - -
17/01:00pm 21.2 S 5 9 - - 0.0 - - - - - - -
17/12:30pm 20.3 SSE 6 11 - - 0.0 - - - - - - -
17/12:00pm 21.1 S 5 8 - - 0.0 - - - - - - -
17/11:30am 20.7 SSE 3 5 - - 0.0 - - - - - - -
17/11:00am 20.3 NW 3 7 - - 0.0 - - - - - - -
17/10:30am 19.0 NNW 5 9 - - 0.0 - - - - - - -
17/10:00am 18.0 NNW 3 6 - - 0.0 - - - - - - -
17/09:30am 16.8 NW 3 5 - - 0.0 - - - - - - -
17/09:00am 15.5 WNW 4 7 - - 0.0 - - - - - - -
17/08:30am 14.3 WNW 5 5 - - 0.0 - - - - - - -
17/08:00am 13.0 WNW 7 8 - - 0.0 - - - - - - -
17/07:30am 11.8 NW 7 9 - - 0.0 - - - - - - -
17/07:00am 11.5 NW 8 9 - - 0.0 - - - - - - -
17/06:30am 11.7 NW 7 9 - - 0.0 - - - - - - -
17/06:00am 11.7 NW 8 10 - - 0.0 - - - - - - -
17/05:30am 12.1 NW 9 10 - - 0.0 - - - - - - -
17/05:00am 12.4 WNW 8 10 - - 0.0 - - - - - - -
17/04:30am 12.5 NW 9 10 - - 0.0 - - - - - - -
17/04:00am 12.2 NW 8 10 - - 0.0 - - - - - - -
17/03:30am 12.0 NW 8 10 - - 0.0 - - - - - - -

Other Formats:

Comma delimited format used in spreadsheet applications
http://www.bom.gov.au/fwo/IDV60701/IDV60701.94846.axf

JavaScript Object Notation format (JSON) in row-major order
http://www.bom.gov.au/fwo/IDV60701/IDV60701.94846.json